Sir Albert — 9HA2536 — position and weather

sailwx.info

Track history (hours):
 
Tides and Currents Weather Stations Pressure Air Temp Water Temp Dewpoint Dewpoint Depression Visibility Wind Speed Wind Dir Waves Ship Positions

Sir Albert

Last reported at 2014-Jul-11 15:20 UTC. Time now 2014-Nov-28 13:21 UTC.
Position N 29°21' W 094°44'.
Warning: this ship's position is months out of date.

Length 135 m; draft 7 m.

Type: Cargo ship. MMSI: 248832000.

Date/timePositionNaut miles runAvg speedWind from/ knotsBaromVisibWave heightAir tempDewpointWater temp
2014-Jul-11 15:20N 29°21' W 094°44'3 0.1
2014-Jul-10 12:25N 29°19' W 094°47'14 0.5
2014-Jul-09 11:08N 29°20' W 094°32'  
2014-Jul-06 04:07N 27°36' W 083°09'611.0
2014-Jul-06 03:33N 27°36' W 083°02'1110.5
2014-Jul-06 02:33N 27°36' W 082°50'10 9.9
2014-Jul-06 01:33N 27°38' W 082°39'9 9.3
2014-Jul-06 00:33N 27°44' W 082°32'9 8.5
2014-Jul-05 23:33N 27°52' W 082°27'4 3.9
2014-Jul-05 22:32N 27°56' W 082°26'0 0.0
2014-Jul-05 21:32N 27°56' W 082°26'0 0.0
2014-Jul-05 20:32N 27°56' W 082°26'0 0.0
2014-Jul-05 19:32N 27°56' W 082°26'0 0.0
2014-Jul-05 18:32N 27°56' W 082°26'0 0.0
2014-Jul-05 17:32N 27°56' W 082°26'0 0.0
2014-Jul-05 16:32N 27°56' W 082°26'0 0.0
2014-Jul-05 15:32N 27°56' W 082°26'0 0.0
2014-Jul-05 14:32N 27°56' W 082°26'0 0.0
2014-Jul-05 13:31N 27°56' W 082°26'0 0.0
2014-Jul-05 12:31N 27°56' W 082°26'0 0.0
2014-Jul-05 11:31N 27°56' W 082°26'0 0.0
2014-Jul-05 10:31N 27°56' W 082°26'0 0.0
2014-Jul-05 09:31N 27°56' W 082°26'0 0.0
2014-Jul-05 08:31N 27°56' W 082°26'0 0.0
2014-Jul-05 07:31N 27°56' W 082°26'0 0.0
2014-Jul-05 06:31N 27°56' W 082°26'0 0.0
2014-Jul-05 05:31N 27°56' W 082°26'0 0.0
2014-Jul-05 04:31N 27°56' W 082°26'0 0.0
2014-Jul-05 03:31N 27°56' W 082°26'0 0.0
2014-Jul-05 02:31N 27°56' W 082°26'0 0.0
2014-Jul-05 01:31N 27°56' W 082°26'0 0.0
2014-Jul-05 00:31N 27°56' W 082°26'0 0.0
2014-Jul-04 23:31N 27°56' W 082°26'0 0.0
2014-Jul-04 22:31N 27°56' W 082°26'0 0.0
2014-Jul-04 21:31N 27°56' W 082°26'0 0.0
2014-Jul-04 20:31N 27°56' W 082°26'0 0.0
2014-Jul-04 19:31N 27°56' W 082°26'0 0.0
2014-Jul-04 18:31N 27°56' W 082°26'0 0.0
2014-Jul-04 17:31N 27°56' W 082°26'0 0.0
2014-Jul-04 16:31N 27°56' W 082°26'0 0.0
2014-Jul-04 15:31N 27°56' W 082°26'0 0.0
2014-Jul-04 14:31N 27°56' W 082°26'0 0.0
2014-Jul-04 13:31N 27°56' W 082°26'0 0.0
2014-Jul-04 12:31N 27°56' W 082°26'0 0.3
2014-Jul-04 11:33N 27°55' W 082°26'7 6.6
2014-Jul-04 10:33N 27°49' W 082°27'10 9.8
2014-Jul-04 09:33N 27°41' W 082°34'1110.8
2014-Jul-04 08:34N 27°36' W 082°45'1010.4
2014-Jul-04 07:34N 27°36' W 082°57'3 3.2
2014-Jul-04 06:33N 27°37' W 082°60'0 0.2
2014-Jul-04 05:33N 27°37' W 082°59'0 0.1
2014-Jul-04 04:30N 27°37' W 082°59'7 7.5
2014-Jul-04 03:33N 27°31' W 083°02'  
Track history (hours):
 
Tides and Currents Weather Stations Pressure Air Temp Water Temp Dewpoint Dewpoint Depression Visibility Wind Speed Wind Dir Waves Ship Positions

Sir Albert

Last reported at 2014-Jul-11 15:20 UTC. Time now 2014-Nov-28 13:21 UTC.
Position N 29°21' W 094°44'.
Warning: this ship's position is months out of date.

Length 135 m; draft 7 m.

Type: Cargo ship. MMSI: 248832000.

Date/timePositionNaut miles runAvg speedWind from/ knotsBaromVisibWave heightAir tempDewpointWater temp
2014-Jul-11 15:20N 29°21' W 094°44'3 0.1
2014-Jul-10 12:25N 29°19' W 094°47'14 0.5
2014-Jul-09 11:08N 29°20' W 094°32'  
2014-Jul-06 04:07N 27°36' W 083°09'611.0
2014-Jul-06 03:33N 27°36' W 083°02'1110.5
2014-Jul-06 02:33N 27°36' W 082°50'10 9.9
2014-Jul-06 01:33N 27°38' W 082°39'9 9.3
2014-Jul-06 00:33N 27°44' W 082°32'9 8.5
2014-Jul-05 23:33N 27°52' W 082°27'4 3.9
2014-Jul-05 22:32N 27°56' W 082°26'0 0.0
2014-Jul-05 21:32N 27°56' W 082°26'0 0.0
2014-Jul-05 20:32N 27°56' W 082°26'0 0.0
2014-Jul-05 19:32N 27°56' W 082°26'0 0.0
2014-Jul-05 18:32N 27°56' W 082°26'0 0.0
2014-Jul-05 17:32N 27°56' W 082°26'0 0.0
2014-Jul-05 16:32N 27°56' W 082°26'0 0.0
2014-Jul-05 15:32N 27°56' W 082°26'0 0.0
2014-Jul-05 14:32N 27°56' W 082°26'0 0.0
2014-Jul-05 13:31N 27°56' W 082°26'0 0.0
2014-Jul-05 12:31N 27°56' W 082°26'0 0.0
2014-Jul-05 11:31N 27°56' W 082°26'0 0.0
2014-Jul-05 10:31N 27°56' W 082°26'0 0.0
2014-Jul-05 09:31N 27°56' W 082°26'0 0.0
2014-Jul-05 08:31N 27°56' W 082°26'0 0.0
2014-Jul-05 07:31N 27°56' W 082°26'0 0.0
2014-Jul-05 06:31N 27°56' W 082°26'0 0.0
2014-Jul-05 05:31N 27°56' W 082°26'0 0.0
2014-Jul-05 04:31N 27°56' W 082°26'0 0.0
2014-Jul-05 03:31N 27°56' W 082°26'0 0.0
2014-Jul-05 02:31N 27°56' W 082°26'0 0.0
2014-Jul-05 01:31N 27°56' W 082°26'0 0.0
2014-Jul-05 00:31N 27°56' W 082°26'0 0.0
2014-Jul-04 23:31N 27°56' W 082°26'0 0.0
2014-Jul-04 22:31N 27°56' W 082°26'0 0.0
2014-Jul-04 21:31N 27°56' W 082°26'0 0.0
2014-Jul-04 20:31N 27°56' W 082°26'0 0.0
2014-Jul-04 19:31N 27°56' W 082°26'0 0.0
2014-Jul-04 18:31N 27°56' W 082°26'0 0.0
2014-Jul-04 17:31N 27°56' W 082°26'0 0.0
2014-Jul-04 16:31N 27°56' W 082°26'0 0.0
2014-Jul-04 15:31N 27°56' W 082°26'0 0.0
2014-Jul-04 14:31N 27°56' W 082°26'0 0.0
2014-Jul-04 13:31N 27°56' W 082°26'0 0.0
2014-Jul-04 12:31N 27°56' W 082°26'0 0.3
2014-Jul-04 11:33N 27°55' W 082°26'7 6.6
2014-Jul-04 10:33N 27°49' W 082°27'10 9.8
2014-Jul-04 09:33N 27°41' W 082°34'1110.8
2014-Jul-04 08:34N 27°36' W 082°45'1010.4
2014-Jul-04 07:34N 27°36' W 082°57'3 3.2
2014-Jul-04 06:33N 27°37' W 082°60'0 0.2
2014-Jul-04 05:33N 27°37' W 082°59'0 0.1
2014-Jul-04 04:30N 27°37' W 082°59'7 7.5
2014-Jul-04 03:33N 27°31' W 083°02'  

Dump ship's entire track history